Terminal Aerodrome Forecast
Issued by NWS Goodland, KS

Home | Current Version | Previous Version | Text Only | Print | Product List | Glossary On
Versions: 1 2 3 4 5 6 7 8 9 10 11 12 13 14
060
FTUS43 KGLD 232209 AAA
TAFGLD
TAF AMD
KGLD 232209Z 2322/2418 VRB05KT P6SM FEW250
     FM240100 20011KT P6SM SCT250
     FM240300 17011KT P6SM BKN250 WS020/23040KT
     FM240800 23010KT P6SM BKN140
     FM241100 30012KT P6SM SCT050 BKN110
     FM241500 31015G25KT P6SM SCT015 BKN035=

USA.gov is the U.S. government's official web portal to all federal, state and local government web resources and services.